Terminal Aerodrome Forecast
Issued by NWS Memphis, TN

Home | Current Version | Previous Version | Text Only | Print | Product List | Glossary On
Versions: 1 2 3 4 5 6 7 8 9 10 11 12 13 14 15 16 17 18
000
FTUS44 KMEG 311730
TAFJBR
TAF
KJBR 311730Z 3118/0118 VRB05KT P6SM SCT120
     FM312000 VRB05KT P6SM VCTS SCT050CB BKN120
     FM010000 VRB03KT P6SM BKN060 BKN100
     FM010300 00000KT P6SM SCT120
     FM010900 VRB03KT P6SM VCTS BKN040CB OVC080
     FM011400 VRB03KT P6SM SCT060 BKN120=

USA.gov is the U.S. government's official web portal to all federal, state and local government web resources and services.